sensor_id;sensor_type;location;lat;lon;timestamp;P1;durP1;ratioP1;P2;durP2;ratioP2
46607;SDS011;32330;51.936;7.184;2023-08-31T03:50:02;11.52;;;8.27;;
46607;SDS011;32330;51.936;7.184;2023-08-31T03:52:30;9.73;;;8.18;;
46607;SDS011;32330;51.936;7.184;2023-08-31T03:54:57;12.15;;;8.18;;
46607;SDS011;32330;51.936;7.184;2023-08-31T03:57:24;10.07;;;8.27;;
46607;SDS011;32330;51.936;7.184;2023-08-31T03:59:55;9.27;;;8.10;;
46607;SDS011;32330;51.936;7.184;2023-08-31T04:02:22;9.43;;;8.43;;
46607;SDS011;32330;51.936;7.184;2023-08-31T04:04:50;12.85;;;9.52;;
46607;SDS011;32330;51.936;7.184;2023-08-31T04:07:18;9.60;;;7.53;;
46607;SDS011;32330;51.936;7.184;2023-08-31T04:09:45;9.55;;;8.55;;
46607;SDS011;32330;51.936;7.184;2023-08-31T04:12:12;11.32;;;8.07;;
46607;SDS011;32330;51.936;7.184;2023-08-31T04:14:39;13.25;;;9.32;;
46607;SDS011;32330;51.936;7.184;2023-08-31T04:17:06;12.98;;;8.65;;
46607;SDS011;32330;51.936;7.184;2023-08-31T04:19:34;16.15;;;9.65;;
46607;SDS011;32330;51.936;7.184;2023-08-31T04:22:03;13.57;;;8.82;;
46607;SDS011;32330;51.936;7.184;2023-08-31T04:24:31;13.23;;;8.75;;
46607;SDS011;32330;51.936;7.184;2023-08-31T04:26:58;9.88;;;8.82;;
46607;SDS011;32330;51.936;7.184;2023-08-31T04:29:25;10.95;;;9.25;;
46607;SDS011;32330;51.936;7.184;2023-08-31T04:31:52;12.05;;;9.20;;
46607;SDS011;32330;51.936;7.184;2023-08-31T04:34:20;11.68;;;9.23;;
46607;SDS011;32330;51.936;7.184;2023-08-31T04:36:47;11.38;;;9.32;;
46607;SDS011;32330;51.936;7.184;2023-08-31T04:39:14;10.95;;;9.60;;
46607;SDS011;32330;51.936;7.184;2023-08-31T04:41:42;14.52;;;9.50;;
46607;SDS011;32330;51.936;7.184;2023-08-31T04:44:09;10.40;;;9.30;;
46607;SDS011;32330;51.936;7.184;2023-08-31T04:46:37;10.45;;;9.40;;
46607;SDS011;32330;51.936;7.184;2023-08-31T04:49:04;11.38;;;10.20;;
46607;SDS011;32330;51.936;7.184;2023-08-31T04:51:32;11.50;;;10.32;;
46607;SDS011;32330;51.936;7.184;2023-08-31T04:54:00;12.75;;;10.23;;
46607;SDS011;32330;51.936;7.184;2023-08-31T04:56:29;13.05;;;10.48;;
46607;SDS011;32330;51.936;7.184;2023-08-31T04:58:58;11.13;;;10.02;;
46607;SDS011;32330;51.936;7.184;2023-08-31T05:01:25;11.85;;;10.75;;
46607;SDS011;32330;51.936;7.184;2023-08-31T05:03:53;11.75;;;10.63;;
46607;SDS011;32330;51.936;7.184;2023-08-31T05:06:20;12.88;;;11.05;;
46607;SDS011;32330;51.936;7.184;2023-08-31T05:08:47;12.38;;;10.75;;
46607;SDS011;32330;51.936;7.184;2023-08-31T05:11:14;11.65;;;10.52;;
46607;SDS011;32330;51.936;7.184;2023-08-31T05:13:41;12.38;;;11.18;;
46607;SDS011;32330;51.936;7.184;2023-08-31T05:16:10;13.50;;;11.85;;
46607;SDS011;32330;51.936;7.184;2023-08-31T05:18:37;12.35;;;11.25;;
46607;SDS011;32330;51.936;7.184;2023-08-31T05:21:05;13.07;;;11.68;;
46607;SDS011;32330;51.936;7.184;2023-08-31T05:23:33;12.50;;;11.20;;
46607;SDS011;32330;51.936;7.184;2023-08-31T05:26:00;12.18;;;11.07;;
46607;SDS011;32330;51.936;7.184;2023-08-31T05:28:27;13.35;;;12.05;;
46607;SDS011;32330;51.936;7.184;2023-08-31T05:30:55;14.43;;;11.63;;
46607;SDS011;32330;51.936;7.184;2023-08-31T05:33:25;12.68;;;11.38;;
46607;SDS011;32330;51.936;7.184;2023-08-31T05:35:53;13.88;;;12.43;;
46607;SDS011;32330;51.936;7.184;2023-08-31T05:38:21;13.80;;;11.88;;
46607;SDS011;32330;51.936;7.184;2023-08-31T05:40:48;12.98;;;11.65;;
46607;SDS011;32330;51.936;7.184;2023-08-31T05:43:15;14.35;;;11.63;;
46607;SDS011;32330;51.936;7.184;2023-08-31T05:45:42;13.05;;;11.82;;
46607;SDS011;32330;51.936;7.184;2023-08-31T05:48:11;14.10;;;12.70;;
46607;SDS011;32330;51.936;7.184;2023-08-31T05:50:40;14.63;;;12.55;;
46607;SDS011;32330;51.936;7.184;2023-08-31T05:53:08;14.25;;;12.07;;
46607;SDS011;32330;51.936;7.184;2023-08-31T05:55:35;13.73;;;12.43;;
46607;SDS011;32330;51.936;7.184;2023-08-31T05:58:02;15.68;;;14.15;;
46607;SDS011;32330;51.936;7.184;2023-08-31T06:00:30;16.23;;;14.63;;
46607;SDS011;32330;51.936;7.184;2023-08-31T06:02:57;16.55;;;14.85;;
46607;SDS011;32330;51.936;7.184;2023-08-31T06:05:24;16.48;;;14.88;;
46607;SDS011;32330;51.936;7.184;2023-08-31T06:07:52;18.63;;;16.85;;
46607;SDS011;32330;51.936;7.184;2023-08-31T06:10:19;18.73;;;16.85;;
46607;SDS011;32330;51.936;7.184;2023-08-31T06:12:48;19.75;;;17.83;;
46607;SDS011;32330;51.936;7.184;2023-08-31T06:15:15;20.40;;;18.25;;
46607;SDS011;32330;51.936;7.184;2023-08-31T06:17:42;21.25;;;19.02;;
46607;SDS011;32330;51.936;7.184;2023-08-31T06:20:10;22.98;;;18.23;;
46607;SDS011;32330;51.936;7.184;2023-08-31T06:22:37;19.95;;;18.00;;
46607;SDS011;32330;51.936;7.184;2023-08-31T06:25:06;20.30;;;18.40;;
46607;SDS011;32330;51.936;7.184;2023-08-31T06:27:33;20.95;;;18.95;;
46607;SDS011;32330;51.936;7.184;2023-08-31T06:30:01;21.20;;;18.85;;
46607;SDS011;32330;51.936;7.184;2023-08-31T06:32:30;20.85;;;18.70;;
46607;SDS011;32330;51.936;7.184;2023-08-31T06:34:57;21.33;;;19.27;;
46607;SDS011;32330;51.936;7.184;2023-08-31T06:37:24;20.45;;;18.27;;
46607;SDS011;32330;51.936;7.184;2023-08-31T06:39:51;19.38;;;17.58;;
46607;SDS011;32330;51.936;7.184;2023-08-31T06:42:19;19.80;;;17.67;;
46607;SDS011;32330;51.936;7.184;2023-08-31T06:44:46;20.33;;;18.45;;
46607;SDS011;32330;51.936;7.184;2023-08-31T06:47:13;20.58;;;18.20;;
46607;SDS011;32330;51.936;7.184;2023-08-31T06:49:42;18.63;;;16.83;;
46607;SDS011;32330;51.936;7.184;2023-08-31T06:52:09;18.50;;;16.77;;
46607;SDS011;32330;51.936;7.184;2023-08-31T06:58:30;18.08;;;16.17;;
46607;SDS011;32330;51.936;7.184;2023-08-31T07:00:57;18.75;;;16.92;;
46607;SDS011;32330;51.936;7.184;2023-08-31T07:03:24;19.48;;;17.60;;
46607;SDS011;32330;51.936;7.184;2023-08-31T07:05:51;17.85;;;16.00;;
46607;SDS011;32330;51.936;7.184;2023-08-31T07:08:19;17.70;;;16.05;;
46607;SDS011;32330;51.936;7.184;2023-08-31T07:10:46;16.85;;;15.25;;
46607;SDS011;32330;51.936;7.184;2023-08-31T07:13:13;16.73;;;15.13;;
46607;SDS011;32330;51.936;7.184;2023-08-31T07:15:42;16.27;;;14.77;;
46607;SDS011;32330;51.936;7.184;2023-08-31T07:18:09;15.65;;;14.23;;
46607;SDS011;32330;51.936;7.184;2023-08-31T07:20:36;14.68;;;13.15;;
46607;SDS011;32330;51.936;7.184;2023-08-31T07:23:03;13.43;;;12.23;;
46607;SDS011;32330;51.936;7.184;2023-08-31T07:25:30;13.90;;;12.50;;
46607;SDS011;32330;51.936;7.184;2023-08-31T07:27:57;14.35;;;12.95;;
46607;SDS011;32330;51.936;7.184;2023-08-31T07:30:24;13.45;;;12.05;;
46607;SDS011;32330;51.936;7.184;2023-08-31T07:32:52;15.05;;;13.27;;
46607;SDS011;32330;51.936;7.184;2023-08-31T07:35:19;13.00;;;11.50;;
46607;SDS011;32330;51.936;7.184;2023-08-31T07:37:46;13.05;;;11.85;;
46607;SDS011;32330;51.936;7.184;2023-08-31T07:40:13;13.18;;;11.82;;
46607;SDS011;32330;51.936;7.184;2023-08-31T07:42:40;13.27;;;11.98;;
46607;SDS011;32330;51.936;7.184;2023-08-31T07:45:08;12.68;;;11.55;;
46607;SDS011;32330;51.936;7.184;2023-08-31T07:47:35;13.13;;;10.35;;
46607;SDS011;32330;51.936;7.184;2023-08-31T07:50:04;12.20;;;11.00;;
46607;SDS011;32330;51.936;7.184;2023-08-31T07:52:32;10.77;;;9.77;;
46607;SDS011;32330;51.936;7.184;2023-08-31T07:54:59;10.85;;;9.65;;
46607;SDS011;32330;51.936;7.184;2023-08-31T07:57:27;10.48;;;9.32;;
46607;SDS011;32330;51.936;7.184;2023-08-31T07:59:54;12.55;;;9.55;;
46607;SDS011;32330;51.936;7.184;2023-08-31T08:02:21;9.15;;;8.20;;
46607;SDS011;32330;51.936;7.184;2023-08-31T08:04:47;10.45;;;9.45;;
46607;SDS011;32330;51.936;7.184;2023-08-31T08:07:16;10.05;;;7.60;;
46607;SDS011;32330;51.936;7.184;2023-08-31T08:09:43;9.15;;;6.55;;
46607;SDS011;32330;51.936;7.184;2023-08-31T08:12:10;7.43;;;6.65;;
46607;SDS011;32330;51.936;7.184;2023-08-31T08:14:37;7.82;;;6.55;;
46607;SDS011;32330;51.936;7.184;2023-08-31T08:17:03;7.03;;;6.05;;
46607;SDS011;32330;51.936;7.184;2023-08-31T08:19:30;9.65;;;6.57;;
46607;SDS011;32330;51.936;7.184;2023-08-31T08:21:57;6.20;;;5.60;;
46607;SDS011;32330;51.936;7.184;2023-08-31T08:24:26;8.23;;;5.72;;
46607;SDS011;32330;51.936;7.184;2023-08-31T08:26:53;9.75;;;5.88;;
46607;SDS011;32330;51.936;7.184;2023-08-31T08:29:20;8.13;;;5.78;;
46607;SDS011;32330;51.936;7.184;2023-08-31T08:31:47;7.90;;;6.80;;
46607;SDS011;32330;51.936;7.184;2023-08-31T08:34:14;5.85;;;5.18;;
46607;SDS011;32330;51.936;7.184;2023-08-31T08:36:41;6.20;;;4.97;;
46607;SDS011;32330;51.936;7.184;2023-08-31T08:39:08;9.02;;;5.10;;
46607;SDS011;32330;51.936;7.184;2023-08-31T08:41:36;6.88;;;4.57;;
46607;SDS011;32330;51.936;7.184;2023-08-31T08:44:04;8.85;;;4.75;;
46607;SDS011;32330;51.936;7.184;2023-08-31T08:46:33;7.15;;;5.40;;
46607;SDS011;32330;51.936;7.184;2023-08-31T08:49:01;8.13;;;5.35;;
46607;SDS011;32330;51.936;7.184;2023-08-31T08:51:30;6.40;;;4.93;;
46607;SDS011;32330;51.936;7.184;2023-08-31T08:53:58;9.27;;;5.43;;
46607;SDS011;32330;51.936;7.184;2023-08-31T08:56:26;6.13;;;4.50;;
46607;SDS011;32330;51.936;7.184;2023-08-31T08:58:54;5.70;;;3.75;;
46607;SDS011;32330;51.936;7.184;2023-08-31T09:01:21;14.18;;;4.30;;
46607;SDS011;32330;51.936;7.184;2023-08-31T09:03:49;6.10;;;3.72;;
46607;SDS011;32330;51.936;7.184;2023-08-31T09:06:17;9.60;;;3.50;;
46607;SDS011;32330;51.936;7.184;2023-08-31T09:08:52;5.95;;;3.30;;
46607;SDS011;32330;51.936;7.184;2023-08-31T09:11:21;5.97;;;3.42;;
46607;SDS011;32330;51.936;7.184;2023-08-31T09:13:48;8.65;;;3.85;;
46607;SDS011;32330;51.936;7.184;2023-08-31T09:16:24;4.72;;;3.20;;
46607;SDS011;32330;51.936;7.184;2023-08-31T09:18:53;7.22;;;3.40;;
46607;SDS011;32330;51.936;7.184;2023-08-31T09:21:21;6.03;;;3.00;;
46607;SDS011;32330;51.936;7.184;2023-08-31T09:23:55;5.50;;;3.63;;
46607;SDS011;32330;51.936;7.184;2023-08-31T09:26:23;6.00;;;3.10;;
46607;SDS011;32330;51.936;7.184;2023-08-31T09:28:50;5.20;;;3.00;;
46607;SDS011;32330;51.936;7.184;2023-08-31T09:31:17;8.05;;;3.03;;
46607;SDS011;32330;51.936;7.184;2023-08-31T09:33:50;5.03;;;2.35;;
46607;SDS011;32330;51.936;7.184;2023-08-31T09:36:19;7.53;;;2.28;;
46607;SDS011;32330;51.936;7.184;2023-08-31T09:38:47;4.68;;;2.00;;
46607;SDS011;32330;51.936;7.184;2023-08-31T09:41:14;4.32;;;1.80;;
46607;SDS011;32330;51.936;7.184;2023-08-31T09:43:41;5.22;;;2.78;;
46607;SDS011;32330;51.936;7.184;2023-08-31T09:46:09;5.40;;;2.08;;
46607;SDS011;32330;51.936;7.184;2023-08-31T09:48:36;8.05;;;2.90;;
46607;SDS011;32330;51.936;7.184;2023-08-31T09:51:07;5.10;;;2.20;;
46607;SDS011;32330;51.936;7.184;2023-08-31T09:53:37;4.28;;;1.98;;
46607;SDS011;32330;51.936;7.184;2023-08-31T09:56:04;6.45;;;2.75;;
46607;SDS011;32330;51.936;7.184;2023-08-31T09:58:32;3.47;;;2.00;;
46607;SDS011;32330;51.936;7.184;2023-08-31T10:00:59;4.45;;;2.10;;
46607;SDS011;32330;51.936;7.184;2023-08-31T10:03:27;6.88;;;2.05;;
46607;SDS011;32330;51.936;7.184;2023-08-31T10:05:55;2.58;;;1.48;;
46607;SDS011;32330;51.936;7.184;2023-08-31T10:08:24;5.47;;;1.83;;
46607;SDS011;32330;51.936;7.184;2023-08-31T10:10:57;3.30;;;1.30;;
46607;SDS011;32330;51.936;7.184;2023-08-31T10:13:27;3.55;;;1.30;;
46607;SDS011;32330;51.936;7.184;2023-08-31T10:15:57;6.45;;;1.38;;
46607;SDS011;32330;51.936;7.184;2023-08-31T10:18:25;2.28;;;1.40;;
46607;SDS011;32330;51.936;7.184;2023-08-31T10:20:53;3.85;;;1.55;;
46607;SDS011;32330;51.936;7.184;2023-08-31T10:23:20;4.78;;;1.60;;
46607;SDS011;32330;51.936;7.184;2023-08-31T10:26:01;3.70;;;1.20;;
46607;SDS011;32330;51.936;7.184;2023-08-31T10:28:29;5.00;;;1.30;;
46607;SDS011;32330;51.936;7.184;2023-08-31T10:31:06;6.72;;;1.73;;
46607;SDS011;32330;51.936;7.184;2023-08-31T10:33:34;5.60;;;1.65;;
46607;SDS011;32330;51.936;7.184;2023-08-31T10:36:09;3.13;;;1.35;;
46607;SDS011;32330;51.936;7.184;2023-08-31T10:38:36;5.43;;;2.08;;
46607;SDS011;32330;51.936;7.184;2023-08-31T10:41:20;6.88;;;1.98;;
46607;SDS011;32330;51.936;7.184;2023-08-31T10:43:49;5.72;;;1.88;;
46607;SDS011;32330;51.936;7.184;2023-08-31T10:46:18;5.80;;;2.90;;
46607;SDS011;32330;51.936;7.184;2023-08-31T10:48:52;6.38;;;2.40;;
46607;SDS011;32330;51.936;7.184;2023-08-31T10:51:27;5.32;;;2.03;;
46607;SDS011;32330;51.936;7.184;2023-08-31T10:54:03;7.05;;;1.88;;
46607;SDS011;32330;51.936;7.184;2023-08-31T10:56:42;6.60;;;1.92;;
46607;SDS011;32330;51.936;7.184;2023-08-31T11:02:27;3.35;;;2.25;;
46607;SDS011;32330;51.936;7.184;2023-08-31T11:05:00;6.75;;;2.00;;
46607;SDS011;32330;51.936;7.184;2023-08-31T11:07:29;5.53;;;2.05;;
46607;SDS011;32330;51.936;7.184;2023-08-31T11:10:06;4.10;;;1.83;;
46607;SDS011;32330;51.936;7.184;2023-08-31T11:12:39;5.28;;;2.58;;
46607;SDS011;32330;51.936;7.184;2023-08-31T11:15:07;4.45;;;2.03;;
46607;SDS011;32330;51.936;7.184;2023-08-31T11:17:36;5.65;;;2.90;;
46607;SDS011;32330;51.936;7.184;2023-08-31T11:20:05;4.78;;;3.03;;
46607;SDS011;32330;51.936;7.184;2023-08-31T11:22:34;4.90;;;2.97;;
46607;SDS011;32330;51.936;7.184;2023-08-31T11:25:05;6.75;;;2.72;;
46607;SDS011;32330;51.936;7.184;2023-08-31T11:27:33;4.40;;;2.40;;
46607;SDS011;32330;51.936;7.184;2023-08-31T11:30:01;8.80;;;2.65;;
46607;SDS011;32330;51.936;7.184;2023-08-31T11:32:29;4.18;;;2.40;;
46607;SDS011;32330;51.936;7.184;2023-08-31T11:34:55;5.07;;;2.40;;
46607;SDS011;32330;51.936;7.184;2023-08-31T11:37:22;4.70;;;2.60;;
46607;SDS011;32330;51.936;7.184;2023-08-31T11:39:52;3.50;;;2.45;;
46607;SDS011;32330;51.936;7.184;2023-08-31T11:42:20;3.60;;;2.40;;
46607;SDS011;32330;51.936;7.184;2023-08-31T11:44:51;4.03;;;2.58;;
46607;SDS011;32330;51.936;7.184;2023-08-31T11:47:21;5.72;;;2.25;;
46607;SDS011;32330;51.936;7.184;2023-08-31T11:49:48;3.47;;;2.35;;
46607;SDS011;32330;51.936;7.184;2023-08-31T11:52:16;5.07;;;3.95;;
46607;SDS011;32330;51.936;7.184;2023-08-31T11:54:43;5.45;;;3.00;;
46607;SDS011;32330;51.936;7.184;2023-08-31T11:57:11;4.60;;;2.83;;
46607;SDS011;32330;51.936;7.184;2023-08-31T11:59:40;7.05;;;2.28;;
46607;SDS011;32330;51.936;7.184;2023-08-31T12:02:08;7.10;;;3.13;;
46607;SDS011;32330;51.936;7.184;2023-08-31T12:04:43;5.88;;;3.22;;
46607;SDS011;32330;51.936;7.184;2023-08-31T12:07:10;4.45;;;2.53;;
46607;SDS011;32330;51.936;7.184;2023-08-31T12:09:37;4.00;;;3.00;;
46607;SDS011;32330;51.936;7.184;2023-08-31T12:12:04;6.40;;;3.20;;
46607;SDS011;32330;51.936;7.184;2023-08-31T12:14:36;5.70;;;3.45;;
46607;SDS011;32330;51.936;7.184;2023-08-31T12:17:05;6.82;;;3.60;;
46607;SDS011;32330;51.936;7.184;2023-08-31T12:19:33;4.95;;;3.70;;
46607;SDS011;32330;51.936;7.184;2023-08-31T12:22:05;5.93;;;3.53;;
46607;SDS011;32330;51.936;7.184;2023-08-31T12:24:37;4.90;;;3.03;;
46607;SDS011;32330;51.936;7.184;2023-08-31T12:27:05;4.95;;;2.75;;
46607;SDS011;32330;51.936;7.184;2023-08-31T12:29:32;3.92;;;2.55;;
46607;SDS011;32330;51.936;7.184;2023-08-31T12:31:59;5.18;;;2.40;;
46607;SDS011;32330;51.936;7.184;2023-08-31T12:34:27;2.80;;;2.22;;
46607;SDS011;32330;51.936;7.184;2023-08-31T12:36:56;3.55;;;2.35;;
46607;SDS011;32330;51.936;7.184;2023-08-31T12:39:27;5.72;;;2.25;;
46607;SDS011;32330;51.936;7.184;2023-08-31T12:41:54;6.05;;;2.15;;
46607;SDS011;32330;51.936;7.184;2023-08-31T12:44:21;3.85;;;2.40;;
46607;SDS011;32330;51.936;7.184;2023-08-31T12:46:50;5.20;;;2.40;;
46607;SDS011;32330;51.936;7.184;2023-08-31T12:49:17;3.83;;;2.40;;
46607;SDS011;32330;51.936;7.184;2023-08-31T12:51:45;4.07;;;2.63;;
46607;SDS011;32330;51.936;7.184;2023-08-31T12:54:12;4.68;;;2.50;;
46607;SDS011;32330;51.936;7.184;2023-08-31T12:56:40;4.80;;;2.88;;
46607;SDS011;32330;51.936;7.184;2023-08-31T12:59:07;5.03;;;3.58;;
46607;SDS011;32330;51.936;7.184;2023-08-31T13:01:34;5.93;;;3.28;;
46607;SDS011;32330;51.936;7.184;2023-08-31T13:04:01;4.88;;;3.03;;
46607;SDS011;32330;51.936;7.184;2023-08-31T13:06:30;6.78;;;4.25;;
46607;SDS011;32330;51.936;7.184;2023-08-31T13:08:57;5.35;;;4.00;;
46607;SDS011;32330;51.936;7.184;2023-08-31T13:11:24;4.50;;;2.90;;
46607;SDS011;32330;51.936;7.184;2023-08-31T13:13:52;4.78;;;3.10;;
46607;SDS011;32330;51.936;7.184;2023-08-31T13:16:21;5.45;;;3.10;;
46607;SDS011;32330;51.936;7.184;2023-08-31T13:18:49;8.70;;;3.28;;
46607;SDS011;32330;51.936;7.184;2023-08-31T13:21:16;4.07;;;2.50;;
46607;SDS011;32330;51.936;7.184;2023-08-31T13:23:43;3.72;;;2.45;;
46607;SDS011;32330;51.936;7.184;2023-08-31T13:26:10;5.32;;;2.33;;
46607;SDS011;32330;51.936;7.184;2023-08-31T13:28:37;2.95;;;2.10;;
46607;SDS011;32330;51.936;7.184;2023-08-31T13:31:05;4.25;;;2.08;;
46607;SDS011;32330;51.936;7.184;2023-08-31T13:33:32;3.78;;;2.30;;
46607;SDS011;32330;51.936;7.184;2023-08-31T13:35:59;3.42;;;2.00;;
46607;SDS011;32330;51.936;7.184;2023-08-31T13:38:26;3.88;;;2.00;;
46607;SDS011;32330;51.936;7.184;2023-08-31T13:40:54;3.85;;;1.80;;
46607;SDS011;32330;51.936;7.184;2023-08-31T13:43:22;3.95;;;2.03;;
46607;SDS011;32330;51.936;7.184;2023-08-31T13:45:49;2.85;;;1.50;;
46607;SDS011;32330;51.936;7.184;2023-08-31T13:48:17;3.35;;;1.70;;
46607;SDS011;32330;51.936;7.184;2023-08-31T13:50:46;2.90;;;1.70;;
46607;SDS011;32330;51.936;7.184;2023-08-31T13:53:13;3.05;;;1.90;;
46607;SDS011;32330;51.936;7.184;2023-08-31T13:55:40;3.35;;;1.33;;
46607;SDS011;32330;51.936;7.184;2023-08-31T13:58:07;3.10;;;1.42;;
46607;SDS011;32330;51.936;7.184;2023-08-31T14:00:34;4.28;;;1.30;;
46607;SDS011;32330;51.936;7.184;2023-08-31T14:03:02;3.33;;;1.30;;
46607;SDS011;32330;51.936;7.184;2023-08-31T14:05:31;2.97;;;1.30;;
46607;SDS011;32330;51.936;7.184;2023-08-31T14:07:59;1.95;;;1.00;;
46607;SDS011;32330;51.936;7.184;2023-08-31T14:10:29;2.88;;;1.00;;
46607;SDS011;32330;51.936;7.184;2023-08-31T14:12:57;2.78;;;1.15;;
46607;SDS011;32330;51.936;7.184;2023-08-31T14:15:24;2.75;;;0.98;;
46607;SDS011;32330;51.936;7.184;2023-08-31T14:17:52;2.55;;;1.20;;
46607;SDS011;32330;51.936;7.184;2023-08-31T14:20:19;1.88;;;0.95;;
46607;SDS011;32330;51.936;7.184;2023-08-31T14:22:49;3.28;;;1.17;;
46607;SDS011;32330;51.936;7.184;2023-08-31T14:25:16;2.47;;;0.88;;
46607;SDS011;32330;51.936;7.184;2023-08-31T14:27:43;3.50;;;1.23;;
46607;SDS011;32330;51.936;7.184;2023-08-31T14:30:10;3.95;;;0.80;;
46607;SDS011;32330;51.936;7.184;2023-08-31T14:32:37;2.42;;;0.80;;
46607;SDS011;32330;51.936;7.184;2023-08-31T14:35:05;1.92;;;0.90;;
46607;SDS011;32330;51.936;7.184;2023-08-31T14:37:32;2.00;;;0.90;;
46607;SDS011;32330;51.936;7.184;2023-08-31T14:40:00;3.85;;;1.25;;
46607;SDS011;32330;51.936;7.184;2023-08-31T14:42:28;1.73;;;1.00;;
46607;SDS011;32330;51.936;7.184;2023-08-31T14:44:55;3.50;;;1.35;;
46607;SDS011;32330;51.936;7.184;2023-08-31T14:47:22;2.83;;;1.35;;
46607;SDS011;32330;51.936;7.184;2023-08-31T14:49:49;3.53;;;1.20;;
46607;SDS011;32330;51.936;7.184;2023-08-31T14:52:16;3.53;;;1.10;;
46607;SDS011;32330;51.936;7.184;2023-08-31T14:54:43;1.95;;;0.90;;
46607;SDS011;32330;51.936;7.184;2023-08-31T14:57:12;1.60;;;0.77;;
46607;SDS011;32330;51.936;7.184;2023-08-31T14:59:39;1.90;;;0.82;;
46607;SDS011;32330;51.936;7.184;2023-08-31T15:02:06;3.78;;;1.23;;
46607;SDS011;32330;51.936;7.184;2023-08-31T15:04:33;2.03;;;1.10;;
46607;SDS011;32330;51.936;7.184;2023-08-31T15:07:00;5.22;;;1.25;;
46607;SDS011;32330;51.936;7.184;2023-08-31T15:09:27;5.97;;;1.42;;
46607;SDS011;32330;51.936;7.184;2023-08-31T15:11:54;2.50;;;1.30;;
46607;SDS011;32330;51.936;7.184;2023-08-31T15:14:23;3.30;;;1.33;;
46607;SDS011;32330;51.936;7.184;2023-08-31T15:16:50;3.28;;;1.23;;
46607;SDS011;32330;51.936;7.184;2023-08-31T15:19:17;2.55;;;1.10;;
46607;SDS011;32330;51.936;7.184;2023-08-31T15:21:44;3.15;;;1.17;;
46607;SDS011;32330;51.936;7.184;2023-08-31T15:24:11;4.07;;;1.40;;
46607;SDS011;32330;51.936;7.184;2023-08-31T15:26:39;2.88;;;1.65;;
46607;SDS011;32330;51.936;7.184;2023-08-31T15:29:06;3.13;;;1.83;;
46607;SDS011;32330;51.936;7.184;2023-08-31T15:31:36;4.75;;;1.70;;
46607;SDS011;32330;51.936;7.184;2023-08-31T15:34:03;3.47;;;1.63;;
46607;SDS011;32330;51.936;7.184;2023-08-31T15:36:30;3.33;;;1.30;;
46607;SDS011;32330;51.936;7.184;2023-08-31T15:38:56;4.45;;;1.90;;
46607;SDS011;32330;51.936;7.184;2023-08-31T15:41:23;3.35;;;1.70;;
46607;SDS011;32330;51.936;7.184;2023-08-31T15:43:50;3.15;;;1.60;;
46607;SDS011;32330;51.936;7.184;2023-08-31T15:46:17;4.78;;;1.83;;
46607;SDS011;32330;51.936;7.184;2023-08-31T15:48:45;3.03;;;1.77;;
46607;SDS011;32330;51.936;7.184;2023-08-31T15:51:14;5.00;;;1.70;;
46607;SDS011;32330;51.936;7.184;2023-08-31T15:53:42;2.70;;;1.50;;
46607;SDS011;32330;51.936;7.184;2023-08-31T15:56:09;3.03;;;1.70;;
46607;SDS011;32330;51.936;7.184;2023-08-31T15:58:36;3.50;;;1.60;;
46607;SDS011;32330;51.936;7.184;2023-08-31T16:01:03;3.22;;;1.70;;
46607;SDS011;32330;51.936;7.184;2023-08-31T16:03:35;6.68;;;2.17;;
46607;SDS011;32330;51.936;7.184;2023-08-31T16:06:04;3.70;;;1.80;;
46607;SDS011;32330;51.936;7.184;2023-08-31T16:08:33;4.28;;;1.55;;
46607;SDS011;32330;51.936;7.184;2023-08-31T16:11:02;5.70;;;1.70;;
46607;SDS011;32330;51.936;7.184;2023-08-31T16:13:30;4.65;;;1.70;;
46607;SDS011;32330;51.936;7.184;2023-08-31T16:15:57;3.85;;;1.80;;
46607;SDS011;32330;51.936;7.184;2023-08-31T16:18:24;3.50;;;1.70;;
46607;SDS011;32330;51.936;7.184;2023-08-31T16:20:52;6.70;;;1.45;;
46607;SDS011;32330;51.936;7.184;2023-08-31T16:23:20;3.15;;;2.20;;
46607;SDS011;32330;51.936;7.184;2023-08-31T16:25:48;3.90;;;1.83;;
46607;SDS011;32330;51.936;7.184;2023-08-31T16:28:14;4.50;;;1.73;;
46607;SDS011;32330;51.936;7.184;2023-08-31T16:30:44;3.95;;;1.80;;
46607;SDS011;32330;51.936;7.184;2023-08-31T16:33:12;4.17;;;1.87;;
46607;SDS011;32330;51.936;7.184;2023-08-31T16:35:39;4.53;;;2.25;;
46607;SDS011;32330;51.936;7.184;2023-08-31T16:38:06;2.78;;;1.80;;
46607;SDS011;32330;51.936;7.184;2023-08-31T16:40:35;3.83;;;1.75;;
46607;SDS011;32330;51.936;7.184;2023-08-31T16:43:03;4.25;;;2.00;;
46607;SDS011;32330;51.936;7.184;2023-08-31T16:45:30;3.08;;;1.92;;
46607;SDS011;32330;51.936;7.184;2023-08-31T16:47:57;5.03;;;3.40;;
46607;SDS011;32330;51.936;7.184;2023-08-31T16:50:30;5.05;;;3.05;;
46607;SDS011;32330;51.936;7.184;2023-08-31T16:52:57;4.88;;;2.58;;
46607;SDS011;32330;51.936;7.184;2023-08-31T16:55:24;5.07;;;2.28;;
46607;SDS011;32330;51.936;7.184;2023-08-31T16:57:53;6.32;;;2.65;;
46607;SDS011;32330;51.936;7.184;2023-08-31T17:00:21;4.05;;;2.72;;
46607;SDS011;32330;51.936;7.184;2023-08-31T17:02:48;4.50;;;3.00;;
46607;SDS011;32330;51.936;7.184;2023-08-31T17:05:15;3.45;;;2.40;;
46607;SDS011;32330;51.936;7.184;2023-08-31T17:07:42;5.63;;;2.30;;
46607;SDS011;32330;51.936;7.184;2023-08-31T17:10:09;4.65;;;2.00;;
46607;SDS011;32330;51.936;7.184;2023-08-31T17:12:36;3.75;;;1.98;;
46607;SDS011;32330;51.936;7.184;2023-08-31T17:15:05;3.45;;;2.03;;
46607;SDS011;32330;51.936;7.184;2023-08-31T17:17:34;4.63;;;2.17;;
46607;SDS011;32330;51.936;7.184;2023-08-31T17:20:01;5.85;;;2.50;;
46607;SDS011;32330;51.936;7.184;2023-08-31T17:22:31;5.50;;;2.53;;
46607;SDS011;32330;51.936;7.184;2023-08-31T17:24:59;3.63;;;2.53;;
46607;SDS011;32330;51.936;7.184;2023-08-31T17:27:26;5.72;;;2.20;;
46607;SDS011;32330;51.936;7.184;2023-08-31T17:29:55;6.07;;;2.45;;
46607;SDS011;32330;51.936;7.184;2023-08-31T17:32:23;5.28;;;2.45;;
46607;SDS011;32330;51.936;7.184;2023-08-31T17:34:51;6.25;;;2.42;;
46607;SDS011;32330;51.936;7.184;2023-08-31T17:37:18;4.68;;;2.78;;
46607;SDS011;32330;51.936;7.184;2023-08-31T17:39:45;6.88;;;3.00;;
46607;SDS011;32330;51.936;7.184;2023-08-31T17:42:12;10.18;;;4.90;;
46607;SDS011;32330;51.936;7.184;2023-08-31T17:44:39;6.85;;;3.85;;
46607;SDS011;32330;51.936;7.184;2023-08-31T17:47:06;4.63;;;3.30;;
46607;SDS011;32330;51.936;7.184;2023-08-31T17:49:34;5.55;;;3.58;;
46607;SDS011;32330;51.936;7.184;2023-08-31T17:52:01;5.90;;;3.63;;
46607;SDS011;32330;51.936;7.184;2023-08-31T17:54:29;4.32;;;3.03;;
46607;SDS011;32330;51.936;7.184;2023-08-31T17:56:56;6.03;;;5.00;;
46607;SDS011;32330;51.936;7.184;2023-08-31T17:59:23;12.45;;;9.68;;
46607;SDS011;32330;51.936;7.184;2023-08-31T18:01:50;10.30;;;9.25;;
46607;SDS011;32330;51.936;7.184;2023-08-31T18:04:17;5.70;;;3.97;;
46607;SDS011;32330;51.936;7.184;2023-08-31T18:06:45;5.50;;;2.95;;
46607;SDS011;32330;51.936;7.184;2023-08-31T18:09:12;5.93;;;4.55;;
46607;SDS011;32330;51.936;7.184;2023-08-31T18:11:40;6.55;;;4.70;;
46607;SDS011;32330;51.936;7.184;2023-08-31T18:14:06;8.25;;;6.50;;
46607;SDS011;32330;51.936;7.184;2023-08-31T18:16:34;8.55;;;5.75;;
46607;SDS011;32330;51.936;7.184;2023-08-31T18:19:01;4.72;;;4.15;;
46607;SDS011;32330;51.936;7.184;2023-08-31T18:21:28;29.63;;;26.58;;
46607;SDS011;32330;51.936;7.184;2023-08-31T18:23:57;11.32;;;6.70;;
46607;SDS011;32330;51.936;7.184;2023-08-31T18:26:24;6.50;;;4.53;;
46607;SDS011;32330;51.936;7.184;2023-08-31T18:28:51;6.43;;;3.85;;
46607;SDS011;32330;51.936;7.184;2023-08-31T18:31:18;9.25;;;7.32;;
46607;SDS011;32330;51.936;7.184;2023-08-31T18:33:45;7.57;;;4.63;;
46607;SDS011;32330;51.936;7.184;2023-08-31T18:36:12;6.85;;;4.38;;
46607;SDS011;32330;51.936;7.184;2023-08-31T18:38:39;8.60;;;3.50;;
46607;SDS011;32330;51.936;7.184;2023-08-31T18:41:07;5.95;;;3.40;;